Time;durP1;ratioP1;P1;durP2;ratioP2;P2;SDS_P1;SDS_P2;PMS_P1;PMS_P2;Temp;Humidity;BMP_temperature;BMP_pressure;BME280_temperature;BME280_humidity;BME280_pressure;Samples;Min_cycle;Max_cycle;Signal;HPM_P1;HPM_P2
2022/07/27 00:01:16;;;;;;;2.60;2.25;;;27.90;64.90;;;;;;5115235;28;20202;-77
2022/07/27 00:03:43;;;;;;;2.65;2.45;;;27.80;62.30;;;;;;5114419;28;20031;-77
2022/07/27 00:06:08;;;;;;;2.47;2.33;;;27.90;62.90;;;;;;5113072;28;20480;-77
2022/07/27 00:08:34;;;;;;;3.00;2.58;;;27.90;66.20;;;;;;5115536;28;20026;-76
2022/07/27 00:11:00;;;;;;;3.13;2.92;;;28.00;69.70;;;;;;5114447;28;20446;-77
2022/07/27 00:13:26;;;;;;;8.38;3.78;;;28.00;78.60;;;;;;5097029;28;20030;-78
2022/07/27 00:15:52;;;;;;;4.45;4.03;;;27.80;87.00;;;;;;5112721;28;20102;-78
2022/07/27 00:18:18;;;;;;;7.82;3.80;;;27.70;92.20;;;;;;5113766;28;20016;-77
2022/07/27 00:20:43;;;;;;;4.20;3.83;;;27.60;95.20;;;;;;5096351;28;20038;-78
2022/07/27 00:23:09;;;;;;;4.82;3.85;;;27.60;95.60;;;;;;5115073;28;20026;-77
2022/07/27 00:25:35;;;;;;;4.05;3.75;;;27.60;95.90;;;;;;5114805;28;20055;-77
2022/07/27 00:28:02;;;;;;;5.20;3.70;;;27.60;95.80;;;;;;5096481;28;20028;-77
2022/07/27 00:30:27;;;;;;;4.07;3.60;;;27.60;97.20;;;;;;5114914;28;20027;-76
2022/07/27 00:32:53;;;;;;;5.05;4.32;;;27.50;98.00;;;;;;5096973;28;20390;-75
2022/07/27 00:35:19;;;;;;;7.55;4.50;;;27.20;99.90;;;;;;5114703;28;20031;-74
2022/07/27 00:37:45;;;;;;;10.95;4.85;;;27.00;99.90;;;;;;5114906;28;20020;-75
2022/07/27 00:40:11;;;;;;;6.82;5.15;;;26.90;99.90;;;;;;5114154;28;20107;-74
2022/07/27 00:42:37;;;;;;;6.75;4.53;;;26.90;99.90;;;;;;5114465;28;20523;-74
2022/07/27 00:45:03;;;;;;;5.88;4.78;;;26.80;99.90;;;;;;5114214;28;20027;-74
2022/07/27 00:47:29;;;;;;;9.73;5.50;;;26.60;99.90;;;;;;5114587;28;20028;-74
2022/07/27 00:49:56;;;;;;;8.60;4.78;;;26.40;99.90;;;;;;5114512;28;20046;-74
2022/07/27 00:52:23;;;;;;;6.80;5.28;;;26.40;99.90;;;;;;5113525;28;20096;-74
2022/07/27 00:54:49;;;;;;;5.68;4.88;;;26.20;99.90;;;;;;5102398;28;20020;-74
2022/07/27 00:57:15;;;;;;;5.60;5.10;;;26.00;99.90;;;;;;5093313;28;20052;-74
2022/07/27 00:59:42;;;;;;;5.43;4.80;;;26.00;99.90;;;;;;5093172;28;20032;-74
2022/07/27 01:02:08;;;;;;;5.95;5.20;;;26.00;99.90;;;;;;5093564;28;20031;-74
2022/07/27 01:04:34;;;;;;;7.15;5.20;;;25.90;99.90;;;;;;5093794;28;20051;-74
2022/07/27 01:07:02;;;;;;;6.10;5.50;;;25.70;99.90;;;;;;5093225;28;20081;-75
2022/07/27 01:12:17;;;;;;;7.72;5.32;;;25.70;99.90;;;;;;5093545;28;20047;-75
2022/07/27 01:14:44;;;;;;;6.05;5.45;;;25.80;99.90;;;;;;5093203;28;20055;-75
2022/07/27 01:17:09;;;;;;;6.43;5.13;;;25.80;99.90;;;;;;5093678;28;20428;-75
2022/07/27 01:19:35;;;;;;;7.70;5.53;;;25.80;99.90;;;;;;5093050;28;20023;-75
2022/07/27 01:22:05;;;;;;;6.40;5.80;;;25.80;99.90;;;;;;5075495;28;20028;-75
2022/07/27 01:24:31;;;;;;;7.65;5.78;;;25.80;99.90;;;;;;5075223;28;20397;-75
2022/07/27 01:27:00;;;;;;;6.13;5.53;;;25.80;99.90;;;;;;5092642;28;20028;-74
2022/07/27 01:29:26;;;;;;;6.60;5.40;;;25.80;99.90;;;;;;5093263;28;20134;-75
2022/07/27 01:31:52;;;;;;;5.50;5.00;;;25.70;99.90;;;;;;5093187;28;20074;-75
2022/07/27 01:34:18;;;;;;;6.55;5.85;;;25.80;99.90;;;;;;5093377;28;20073;-75
2022/07/27 01:36:44;;;;;;;7.82;5.40;;;25.80;99.90;;;;;;5093144;28;20469;-75
2022/07/27 01:39:11;;;;;;;6.03;5.43;;;25.80;99.90;;;;;;5093247;28;20473;-75
2022/07/27 01:41:37;;;;;;;7.50;6.50;;;25.70;99.90;;;;;;5092630;28;20000;-75
2022/07/27 01:44:03;;;;;;;7.05;6.40;;;25.60;99.90;;;;;;5092898;28;20520;-75
2022/07/27 01:46:29;;;;;;;8.77;6.82;;;25.50;99.90;;;;;;5093056;28;20031;-75
2022/07/27 01:48:54;;;;;;;9.15;6.63;;;25.30;99.90;;;;;;5092647;28;20565;-76
2022/07/27 01:51:20;;;;;;;9.45;6.63;;;25.20;99.90;;;;;;5092853;28;20336;-75
2022/07/27 01:53:46;;;;;;;7.10;6.35;;;25.10;99.90;;;;;;5092846;28;20027;-75
2022/07/27 01:56:12;;;;;;;6.72;6.13;;;25.10;99.90;;;;;;5092950;28;20016;-75
2022/07/27 01:58:39;;;;;;;8.40;6.80;;;25.20;99.90;;;;;;5092623;28;20485;-75
2022/07/27 02:01:06;;;;;;;6.13;5.63;;;25.20;99.90;;;;;;5074353;28;20128;-75
2022/07/27 02:03:32;;;;;;;7.07;6.38;;;25.20;99.90;;;;;;5074210;28;20070;-75
2022/07/27 02:05:58;;;;;;;7.00;6.22;;;25.30;99.90;;;;;;5092534;28;20030;-75
2022/07/27 02:08:24;;;;;;;10.68;7.00;;;25.30;99.90;;;;;;5103502;28;20098;-75
2022/07/27 02:13:34;;;;;;;6.57;6.00;;;25.20;99.90;;;;;;5107256;28;20093;-75
2022/07/27 02:16:00;;;;;;;6.85;5.90;;;25.10;99.90;;;;;;5112704;28;20023;-76
2022/07/27 02:18:26;;;;;;;8.25;5.93;;;25.20;99.90;;;;;;5112544;28;20476;-75
2022/07/27 02:20:52;;;;;;;8.23;5.93;;;25.10;99.90;;;;;;5112223;28;20024;-75
2022/07/27 02:23:18;;;;;;;8.05;6.28;;;25.00;99.90;;;;;;5112561;28;20023;-75
2022/07/27 02:25:44;;;;;;;6.63;6.00;;;25.00;99.90;;;;;;5112725;28;20024;-76
2022/07/27 02:28:10;;;;;;;6.85;6.22;;;25.00;99.90;;;;;;5112760;28;20063;-76
2022/07/27 02:30:35;;;;;;;8.85;6.07;;;25.10;99.90;;;;;;5094344;28;20445;-75
2022/07/27 02:33:02;;;;;;;8.30;5.93;;;25.10;99.90;;;;;;5111884;28;20107;-76
2022/07/27 02:35:28;;;;;;;9.15;6.85;;;25.00;99.90;;;;;;5112646;28;20022;-76
2022/07/27 02:37:54;;;;;;;10.93;6.65;;;25.00;99.90;;;;;;5111943;28;20487;-76
2022/07/27 02:40:20;;;;;;;8.10;6.22;;;25.10;99.90;;;;;;5112469;28;20027;-76
2022/07/27 02:42:46;;;;;;;7.38;6.68;;;25.10;99.90;;;;;;5111980;28;20451;-76
2022/07/27 02:45:14;;;;;;;8.90;6.45;;;25.00;99.90;;;;;;5112072;28;20024;-76
2022/07/27 02:47:40;;;;;;;8.65;6.13;;;25.00;99.90;;;;;;5108681;28;20028;-76
2022/07/27 02:50:06;;;;;;;8.52;6.82;;;25.00;99.90;;;;;;5111787;28;20038;-76
2022/07/27 02:52:32;;;;;;;7.53;5.70;;;25.00;99.90;;;;;;5112354;28;20080;-76
2022/07/27 02:54:58;;;;;;;7.63;6.53;;;24.90;99.90;;;;;;5112101;28;20228;-76
2022/07/27 02:57:24;;;;;;;8.68;6.35;;;24.80;99.90;;;;;;5112174;28;20031;-75
2022/07/27 02:59:50;;;;;;;7.30;6.60;;;24.70;99.90;;;;;;5111898;28;20030;-76
2022/07/27 03:02:15;;;;;;;6.60;5.93;;;24.60;99.90;;;;;;5093902;28;20453;-76
2022/07/27 03:04:41;;;;;;;7.53;6.82;;;24.60;99.90;;;;;;5111419;28;20504;-76
2022/07/27 03:07:08;;;;;;;7.85;6.43;;;24.70;99.90;;;;;;5111708;28;20106;-76
2022/07/27 03:09:34;;;;;;;8.15;6.72;;;24.60;99.90;;;;;;5111813;28;20020;-76
2022/07/27 03:12:00;;;;;;;7.38;6.78;;;24.60;99.90;;;;;;5111762;28;20028;-76
2022/07/27 03:14:26;;;;;;;8.05;7.25;;;24.60;99.90;;;;;;5112074;28;20024;-76
2022/07/27 03:16:52;;;;;;;7.97;7.20;;;24.50;99.90;;;;;;5093289;28;20487;-76
2022/07/27 03:19:18;;;;;;;7.82;7.13;;;24.50;99.90;;;;;;5111967;28;20034;-76
2022/07/27 03:21:43;;;;;;;8.82;7.28;;;24.50;99.90;;;;;;5093175;28;20020;-76
2022/07/27 03:24:09;;;;;;;10.55;8.50;;;24.60;99.90;;;;;;5111179;28;20091;-76
2022/07/27 03:26:35;;;;;;;10.15;8.20;;;24.50;99.90;;;;;;5111870;28;20024;-76
2022/07/27 03:29:01;;;;;;;8.35;7.55;;;24.50;99.90;;;;;;5111759;28;20027;-76
2022/07/27 03:31:26;;;;;;;10.07;8.48;;;24.50;99.90;;;;;;5111600;28;20044;-76
2022/07/27 03:33:52;;;;;;;9.55;8.63;;;24.50;99.90;;;;;;5111336;28;20081;-76
2022/07/27 03:36:18;;;;;;;8.52;7.70;;;24.50;99.90;;;;;;5093478;28;20026;-76
2022/07/27 03:38:44;;;;;;;8.77;7.88;;;24.50;99.90;;;;;;5111573;28;20037;-76
2022/07/27 03:41:09;;;;;;;8.15;7.35;;;24.50;99.90;;;;;;5093671;28;20024;-76
2022/07/27 03:43:35;;;;;;;9.38;8.13;;;24.50;99.90;;;;;;5111329;28;20520;-76
2022/07/27 03:46:01;;;;;;;10.13;8.27;;;24.50;99.90;;;;;;5093397;28;20059;-76
2022/07/27 03:48:27;;;;;;;8.40;7.57;;;24.60;99.90;;;;;;5111408;28;20027;-76
2022/07/27 03:50:53;;;;;;;8.77;7.88;;;24.60;99.90;;;;;;5111072;28;20482;-76
2022/07/27 03:53:20;;;;;;;9.20;8.30;;;24.60;99.90;;;;;;5110897;28;20028;-76
2022/07/27 03:55:49;;;;;;;8.05;7.25;;;24.60;99.90;;;;;;5111443;28;20012;-76
2022/07/27 03:58:15;;;;;;;8.63;7.38;;;24.60;99.90;;;;;;5111584;28;20060;-76
2022/07/27 04:00:42;;;;;;;7.78;6.97;;;24.60;99.90;;;;;;5110867;28;20476;-76
2022/07/27 04:03:08;;;;;;;7.95;7.25;;;24.50;99.90;;;;;;5111291;28;20034;-76
2022/07/27 04:05:34;;;;;;;7.53;6.82;;;24.60;99.90;;;;;;5111289;28;20392;-76
2022/07/27 04:07:59;;;;;;;6.97;6.38;;;24.60;99.90;;;;;;5111516;28;20028;-76
2022/07/27 04:10:25;;;;;;;8.15;6.75;;;24.60;99.90;;;;;;5089488;28;20547;-76
2022/07/27 04:12:51;;;;;;;7.60;5.65;;;24.60;99.90;;;;;;5111478;28;20103;-76
2022/07/27 04:15:17;;;;;;;5.35;4.85;;;24.50;99.90;;;;;;5111216;28;20020;-76
2022/07/27 04:17:44;;;;;;;6.35;5.38;;;24.40;99.90;;;;;;5111539;28;20519;-77
2022/07/27 04:20:11;;;;;;;6.60;5.93;;;24.30;99.90;;;;;;5111342;28;20032;-76
2022/07/27 04:22:36;;;;;;;6.60;6.03;;;24.30;99.90;;;;;;5093114;28;20495;-76
2022/07/27 04:25:02;;;;;;;6.28;5.65;;;24.30;99.90;;;;;;5111216;28;20020;-76
2022/07/27 04:27:28;;;;;;;5.50;5.00;;;24.40;99.90;;;;;;5109121;28;20024;-76
2022/07/27 04:29:54;;;;;;;5.70;5.20;;;24.40;99.90;;;;;;5112975;28;20048;-76
2022/07/27 04:32:20;;;;;;;5.38;4.68;;;24.30;99.90;;;;;;5114550;28;20024;-76
2022/07/27 04:34:45;;;;;;;5.93;5.30;;;24.30;99.90;;;;;;5112123;28;20012;-76
2022/07/27 04:37:11;;;;;;;5.78;5.00;;;24.30;99.90;;;;;;5105769;28;20020;-76
2022/07/27 04:39:37;;;;;;;6.20;5.70;;;24.30;99.90;;;;;;5103895;28;20027;-76
2022/07/27 04:42:07;;;;;;;5.97;5.47;;;24.20;99.90;;;;;;5084683;28;20039;-75
2022/07/27 04:44:33;;;;;;;5.93;5.22;;;24.20;99.90;;;;;;5102385;28;20393;-76
2022/07/27 04:46:58;;;;;;;5.53;5.13;;;24.00;99.90;;;;;;5102871;28;20536;-76
2022/07/27 04:49:24;;;;;;;5.75;5.25;;;24.00;99.90;;;;;;5085520;28;22033;-76
2022/07/27 04:51:50;;;;;;;6.00;5.47;;;24.00;99.90;;;;;;5095453;28;20016;-76
2022/07/27 04:54:16;;;;;;;6.00;5.50;;;24.00;99.90;;;;;;5074078;28;20394;-76
2022/07/27 04:56:42;;;;;;;6.00;5.47;;;24.00;99.90;;;;;;5098684;28;20016;-76
2022/07/27 04:59:10;;;;;;;6.78;5.57;;;23.90;99.90;;;;;;5101501;28;20031;-76
2022/07/27 05:01:36;;;;;;;5.68;5.05;;;23.90;99.90;;;;;;5097630;28;20020;-77
2022/07/27 05:04:03;;;;;;;5.25;4.90;;;24.00;99.90;;;;;;5091919;28;20046;-76
2022/07/27 05:06:31;;;;;;;4.88;4.57;;;24.10;99.90;;;;;;5092574;28;20050;-76
2022/07/27 05:08:58;;;;;;;6.68;5.05;;;24.20;99.90;;;;;;5093978;28;20102;-76
2022/07/27 05:11:23;;;;;;;5.22;4.72;;;24.20;99.90;;;;;;5093640;28;20024;-76
2022/07/27 05:13:49;;;;;;;5.97;4.57;;;24.20;99.90;;;;;;5093934;28;20112;-77
2022/07/27 05:16:15;;;;;;;5.45;4.95;;;24.20;99.90;;;;;;5093691;28;20153;-76
2022/07/27 05:18:41;;;;;;;6.60;5.18;;;24.20;99.90;;;;;;5093900;28;20055;-76
2022/07/27 05:21:08;;;;;;;5.25;4.70;;;24.20;99.90;;;;;;5100700;28;20049;-76
2022/07/27 05:23:34;;;;;;;4.63;4.22;;;24.30;99.90;;;;;;5113990;28;20028;-76
2022/07/27 05:26:00;;;;;;;4.85;4.45;;;24.40;99.90;;;;;;5104539;28;20599;-76
2022/07/27 05:28:26;;;;;;;7.28;4.05;;;24.40;99.90;;;;;;5085007;28;20031;-76
2022/07/27 05:30:52;;;;;;;4.68;4.38;;;24.50;99.90;;;;;;5113810;28;20080;-76
2022/07/27 05:33:18;;;;;;;4.45;4.15;;;24.50;99.90;;;;;;5113660;28;20023;-76
2022/07/27 05:35:43;;;;;;;4.93;4.43;;;24.50;99.90;;;;;;5113869;28;20031;-76
2022/07/27 05:38:09;;;;;;;4.00;3.70;;;24.60;99.90;;;;;;5113475;28;20068;-76
2022/07/27 05:40:35;;;;;;;4.18;3.58;;;24.70;99.90;;;;;;5112733;28;20493;-76
2022/07/27 05:43:01;;;;;;;6.53;4.18;;;24.80;99.90;;;;;;5111869;28;20039;-76
2022/07/27 05:45:26;;;;;;;4.65;4.25;;;24.90;99.90;;;;;;5111743;28;20027;-76
2022/07/27 05:47:58;;;;;;;6.82;5.38;;;24.90;99.90;;;;;;5111563;28;20023;-76
2022/07/27 05:50:24;;;;;;;6.80;5.25;;;25.00;99.90;;;;;;5093278;28;20039;-76
2022/07/27 05:52:49;;;;;;;6.25;5.07;;;25.00;99.90;;;;;;5111527;28;20081;-76
2022/07/27 05:55:15;;;;;;;5.55;5.05;;;25.10;99.90;;;;;;5111761;28;20020;-76
2022/07/27 05:57:41;;;;;;;6.38;5.28;;;25.20;99.90;;;;;;5112734;28;20020;-75
2022/07/27 06:00:08;;;;;;;7.85;5.80;;;25.20;99.90;;;;;;5112837;28;20473;-75
2022/07/27 06:02:34;;;;;;;6.47;5.05;;;25.20;99.90;;;;;;5113304;28;20103;-76
2022/07/27 06:05:00;;;;;;;6.85;5.38;;;25.30;99.90;;;;;;5113110;28;20050;-75
2022/07/27 06:10:10;;;;;;;5.03;4.60;;;25.30;99.90;;;;;;5113228;28;20034;-76
2022/07/27 06:12:41;;;;;;;5.85;4.78;;;25.30;99.90;;;;;;5113882;28;20088;-76
2022/07/27 06:15:09;;;;;;;4.90;4.50;;;25.40;99.90;;;;;;5114038;28;20019;-76
2022/07/27 06:17:35;;;;;;;5.82;5.07;;;25.50;99.90;;;;;;5093156;28;20034;-75
2022/07/27 06:20:02;;;;;;;6.63;4.80;;;25.50;99.90;;;;;;5094036;28;20103;-76
2022/07/27 06:22:28;;;;;;;5.38;4.65;;;25.60;99.90;;;;;;5093961;28;20043;-75
2022/07/27 06:24:54;;;;;;;5.30;4.32;;;25.70;99.90;;;;;;5093296;28;20660;-75
2022/07/27 06:27:19;;;;;;;5.80;5.30;;;25.70;99.90;;;;;;5075825;28;20566;-75
2022/07/27 06:29:45;;;;;;;5.22;4.75;;;25.70;99.90;;;;;;5113063;28;20027;-75
2022/07/27 06:32:11;;;;;;;5.15;4.28;;;25.80;99.90;;;;;;5113108;28;20020;-75
2022/07/27 06:34:37;;;;;;;4.72;4.43;;;25.80;99.90;;;;;;5113019;28;20028;-76
2022/07/27 06:37:03;;;;;;;5.18;4.78;;;25.80;99.90;;;;;;5112144;28;20106;-76
2022/07/27 06:39:28;;;;;;;8.02;4.47;;;25.90;99.90;;;;;;5112239;28;20019;-75
2022/07/27 06:41:56;;;;;;;5.00;4.60;;;25.90;99.90;;;;;;5111974;28;20057;-75
2022/07/27 06:44:22;;;;;;;5.28;4.88;;;26.00;99.90;;;;;;5109045;28;20450;-75
2022/07/27 06:46:47;;;;;;;5.32;4.55;;;26.00;99.90;;;;;;5112468;28;20019;-76
2022/07/27 06:49:13;;;;;;;6.22;4.85;;;25.90;99.90;;;;;;5094351;28;20111;-76
2022/07/27 06:51:39;;;;;;;5.13;4.30;;;25.90;99.90;;;;;;5112256;28;20610;-76
2022/07/27 06:54:05;;;;;;;4.63;4.30;;;25.80;99.90;;;;;;5111050;28;20020;-76
2022/07/27 06:56:31;;;;;;;4.90;4.50;;;25.70;99.90;;;;;;5112577;28;20020;-76
2022/07/27 06:58:57;;;;;;;5.22;4.70;;;25.80;99.90;;;;;;5112079;28;20109;-75
2022/07/27 07:01:23;;;;;;;5.40;4.13;;;25.90;99.90;;;;;;5111924;28;20554;-76
2022/07/27 07:03:48;;;;;;;6.70;4.53;;;26.00;99.90;;;;;;5111880;28;20027;-75
2022/07/27 07:06:14;;;;;;;5.80;4.68;;;26.00;99.90;;;;;;5112404;28;20035;-76
2022/07/27 07:08:40;;;;;;;6.03;5.00;;;26.00;99.90;;;;;;5112309;28;20023;-76
2022/07/27 07:11:08;;;;;;;6.30;4.28;;;26.00;99.90;;;;;;5112197;28;20019;-75
2022/07/27 07:13:33;;;;;;;5.43;4.18;;;26.00;99.90;;;;;;5112186;28;20030;-76
2022/07/27 07:15:59;;;;;;;8.63;4.47;;;26.00;99.90;;;;;;5093936;28;20020;-76
2022/07/27 07:18:25;;;;;;;4.75;4.25;;;25.90;99.90;;;;;;5112011;28;20028;-76
2022/07/27 07:20:50;;;;;;;7.80;4.45;;;26.00;99.90;;;;;;5093869;28;20023;-75
2022/07/27 07:23:16;;;;;;;6.85;4.60;;;25.90;99.90;;;;;;5111374;28;20465;-75
2022/07/27 07:25:42;;;;;;;4.57;4.20;;;26.00;99.90;;;;;;5112192;28;20032;-75
2022/07/27 07:28:08;;;;;;;5.10;4.60;;;26.00;99.90;;;;;;5112061;28;20020;-75
2022/07/27 07:30:34;;;;;;;5.63;4.35;;;26.10;99.90;;;;;;5111943;28;20031;-76
2022/07/27 07:33:01;;;;;;;5.32;4.25;;;26.20;99.90;;;;;;5112063;28;20023;-76
2022/07/27 07:35:27;;;;;;;4.68;4.38;;;26.30;99.90;;;;;;5111986;28;20500;-76
2022/07/27 07:37:53;;;;;;;4.32;4.03;;;26.20;99.90;;;;;;5111825;28;20027;-76
2022/07/27 07:40:19;;;;;;;4.90;3.92;;;26.40;99.90;;;;;;5112084;28;20027;-76
2022/07/27 07:43:01;;;;;;;3.90;3.60;;;26.40;99.90;;;;;;5093219;28;20062;-75
2022/07/27 07:45:29;;;;;;;5.70;4.45;;;26.50;99.90;;;;;;5111798;28;20650;-76
2022/07/27 07:47:55;;;;;;;5.10;4.72;;;26.60;99.90;;;;;;5111802;28;20595;-75
2022/07/27 07:50:22;;;;;;;9.38;4.65;;;26.70;99.90;;;;;;5111690;28;20035;-75
2022/07/27 07:52:49;;;;;;;5.18;3.97;;;26.70;99.90;;;;;;5111673;28;20081;-75
2022/07/27 07:55:18;;;;;;;4.30;3.90;;;26.80;99.90;;;;;;5093529;28;20324;-75
2022/07/27 07:57:44;;;;;;;5.05;4.65;;;27.00;99.90;;;;;;5111587;28;20034;-76
2022/07/27 08:00:10;;;;;;;5.82;4.82;;;26.90;99.90;;;;;;5111887;28;20028;-75
2022/07/27 08:02:43;;;;;;;5.03;4.65;;;26.70;99.90;;;;;;5112924;28;20107;-75
2022/07/27 08:05:10;;;;;;;6.05;5.43;;;26.70;99.90;;;;;;5115781;28;20108;-75
2022/07/27 08:07:36;;;;;;;9.18;5.22;;;26.70;99.90;;;;;;5115448;28;20038;-76
2022/07/27 08:10:02;;;;;;;5.18;4.78;;;26.70;99.90;;;;;;5115535;28;20028;-75
2022/07/27 08:12:28;;;;;;;5.40;4.93;;;26.70;99.90;;;;;;5115491;28;20032;-75
2022/07/27 08:14:54;;;;;;;5.45;4.93;;;26.60;99.90;;;;;;5097204;28;20020;-75
2022/07/27 08:17:19;;;;;;;5.22;4.70;;;26.60;99.90;;;;;;5097130;28;20020;-75
2022/07/27 08:19:45;;;;;;;7.72;5.40;;;26.80;99.90;;;;;;5112072;28;20388;-76
2022/07/27 08:22:11;;;;;;;8.27;5.63;;;26.80;99.90;;;;;;5115365;28;20028;-76
2022/07/27 08:24:36;;;;;;;6.38;5.78;;;26.70;99.90;;;;;;5115153;28;20107;-75
2022/07/27 08:27:02;;;;;;;6.10;5.60;;;26.70;99.90;;;;;;5115312;28;20538;-75
2022/07/27 08:29:28;;;;;;;5.35;4.93;;;26.70;99.90;;;;;;5114950;28;20409;-75
2022/07/27 08:31:54;;;;;;;6.97;4.72;;;26.80;99.90;;;;;;5115158;28;20031;-75
2022/07/27 08:34:19;;;;;;;11.38;6.20;;;26.80;99.90;;;;;;5111804;28;20020;-75
2022/07/27 08:36:45;;;;;;;6.03;5.45;;;26.60;99.90;;;;;;5115008;28;20020;-75
2022/07/27 08:39:11;;;;;;;7.68;6.32;;;26.60;99.90;;;;;;5115134;28;20027;-75
2022/07/27 08:41:41;;;;;;;5.90;5.30;;;26.70;99.90;;;;;;5114679;28;20110;-75
2022/07/27 08:44:11;;;;;;;5.68;5.18;;;26.80;99.90;;;;;;5114656;28;20432;-75
2022/07/27 08:46:39;;;;;;;6.30;5.50;;;26.90;99.90;;;;;;5114631;28;20039;-75
2022/07/27 08:49:07;;;;;;;6.15;5.40;;;27.10;99.90;;;;;;5114547;28;20148;-75
2022/07/27 08:51:33;;;;;;;6.47;5.88;;;27.20;99.90;;;;;;5114603;28;20036;-75
2022/07/27 08:54:00;;;;;;;6.43;5.88;;;27.20;99.90;;;;;;5114759;28;20019;-75
2022/07/27 08:56:26;;;;;;;7.72;5.28;;;27.30;99.90;;;;;;5114669;28;20488;-75
2022/07/27 08:58:52;;;;;;;5.63;5.13;;;27.30;99.90;;;;;;5113200;28;20024;-75
2022/07/27 09:01:18;;;;;;;5.28;4.88;;;27.30;99.90;;;;;;5106214;28;20027;-75
2022/07/27 09:03:44;;;;;;;5.32;4.85;;;27.40;99.90;;;;;;5114348;28;20501;-75
2022/07/27 09:06:09;;;;;;;5.63;5.13;;;27.40;99.90;;;;;;5113829;28;20028;-75
2022/07/27 09:08:37;;;;;;;7.53;5.60;;;27.50;99.90;;;;;;5113827;28;20484;-75
2022/07/27 09:11:14;;;;;;;5.63;5.20;;;27.50;99.90;;;;;;5113726;28;20473;-75
2022/07/27 09:13:41;;;;;;;4.90;4.25;;;27.40;99.90;;;;;;5113793;28;20047;-75
2022/07/27 09:16:08;;;;;;;4.93;4.50;;;27.60;99.90;;;;;;5114342;28;20012;-75
2022/07/27 09:18:37;;;;;;;4.55;3.65;;;27.70;99.90;;;;;;5114053;28;20156;-75
2022/07/27 09:21:24;;;;;;;5.15;4.65;;;27.80;99.90;;;;;;5114088;28;20051;-75
2022/07/27 09:24:04;;;;;;;5.32;4.50;;;27.80;99.90;;;;;;5113649;28;20055;-75
2022/07/27 09:26:30;;;;;;;5.80;4.30;;;27.80;99.90;;;;;;5107247;28;20035;-75
2022/07/27 09:28:59;;;;;;;6.18;5.28;;;27.90;99.90;;;;;;5114025;28;20023;-75
2022/07/27 09:31:25;;;;;;;5.82;4.88;;;27.90;99.90;;;;;;5113691;28;20076;-76
2022/07/27 09:33:52;;;;;;;5.43;4.93;;;28.00;99.90;;;;;;5113748;28;20024;-75
2022/07/27 09:36:21;;;;;;;4.82;4.43;;;28.10;99.90;;;;;;5113827;28;20029;-75
2022/07/27 09:39:02;;;;;;;6.03;4.80;;;28.20;99.90;;;;;;5113869;28;20034;-75
2022/07/27 09:41:49;;;;;;;6.13;5.53;;;28.30;99.90;;;;;;5095265;28;20031;-75
2022/07/27 09:44:15;;;;;;;5.32;4.88;;;28.30;99.90;;;;;;5113271;28;20047;-75
2022/07/27 09:46:45;;;;;;;4.78;4.38;;;28.30;99.90;;;;;;5095286;28;20389;-75
2022/07/27 09:49:34;;;;;;;5.25;4.75;;;28.30;99.90;;;;;;5113322;28;20110;-75
2022/07/27 09:52:01;;;;;;;4.82;4.30;;;28.30;99.90;;;;;;5084732;28;20043;-75
2022/07/27 09:54:40;;;;;;;4.85;4.05;;;28.20;99.90;;;;;;5113262;28;20474;-75
2022/07/27 09:57:06;;;;;;;5.72;5.15;;;28.30;99.40;;;;;;5113370;28;20019;-76
2022/07/27 09:59:32;;;;;;;4.20;3.90;;;28.50;99.70;;;;;;5113196;28;20027;-75
2022/07/27 10:01:57;;;;;;;4.10;3.80;;;28.50;99.90;;;;;;5113378;28;20477;-75
2022/07/27 10:04:25;;;;;;;4.13;3.83;;;28.60;98.40;;;;;;5113212;28;20028;-75
2022/07/27 10:06:50;;;;;;;4.80;4.10;;;28.80;98.90;;;;;;5094713;28;20027;-76
2022/07/27 10:09:18;;;;;;;5.60;5.07;;;29.00;98.20;;;;;;5113254;28;20023;-76
2022/07/27 10:11:46;;;;;;;3.63;3.42;;;29.10;98.20;;;;;;5113179;28;20024;-76
2022/07/27 10:14:12;;;;;;;2.92;2.72;;;29.20;96.10;;;;;;5094852;28;20423;-75
2022/07/27 10:16:40;;;;;;;3.58;3.28;;;29.30;94.10;;;;;;5112835;28;20173;-76
2022/07/27 10:19:24;;;;;;;4.40;4.00;;;29.30;95.50;;;;;;5091393;28;20019;-75
2022/07/27 10:21:50;;;;;;;4.30;3.45;;;29.10;95.60;;;;;;5113110;28;20027;-75
2022/07/27 10:24:32;;;;;;;3.08;2.88;;;29.30;95.40;;;;;;5112753;28;20024;-76
2022/07/27 10:27:16;;;;;;;4.93;3.67;;;29.30;93.70;;;;;;5093966;28;20062;-76
2022/07/27 10:29:42;;;;;;;4.55;4.15;;;29.20;95.60;;;;;;5094758;28;20020;-76
2022/07/27 10:32:08;;;;;;;4.75;3.40;;;29.30;95.10;;;;;;5092348;28;20024;-76
2022/07/27 10:34:41;;;;;;;3.22;3.00;;;29.60;94.80;;;;;;5092285;28;20062;-76
2022/07/27 10:37:09;;;;;;;4.03;3.25;;;29.70;93.10;;;;;;5073965;28;20081;-76
2022/07/27 10:39:41;;;;;;;3.60;3.30;;;29.60;93.10;;;;;;5092191;28;20028;-77
2022/07/27 10:42:25;;;;;;;3.20;3.00;;;29.70;92.50;;;;;;5091966;28;20477;-76
2022/07/27 10:45:02;;;;;;;5.45;3.20;;;29.80;93.10;;;;;;5092073;28;20142;-76
2022/07/27 10:47:29;;;;;;;3.58;3.38;;;30.00;92.10;;;;;;5073971;28;20052;-75
2022/07/27 10:50:17;;;;;;;3.10;2.80;;;29.90;90.90;;;;;;5091954;28;20032;-76
2022/07/27 10:52:54;;;;;;;4.28;2.97;;;30.00;90.50;;;;;;5073828;28;20024;-76
2022/07/27 10:55:34;;;;;;;4.03;2.50;;;30.20;87.00;;;;;;5073751;28;20031;-76
2022/07/27 10:58:02;;;;;;;2.85;2.63;;;30.30;88.00;;;;;;5091929;28;20099;-75
2022/07/27 11:00:49;;;;;;;4.22;2.92;;;30.60;86.20;;;;;;5091755;28;20436;-75
2022/07/27 11:03:25;;;;;;;2.47;2.38;;;30.60;87.00;;;;;;5073611;28;20097;-75
2022/07/27 11:05:55;;;;;;;2.50;2.30;;;30.70;85.70;;;;;;5091941;28;20031;-76
2022/07/27 11:08:29;;;;;;;3.13;2.85;;;30.70;84.30;;;;;;5073673;28;20035;-75
2022/07/27 11:10:55;;;;;;;2.88;2.67;;;30.90;84.70;;;;;;5091760;28;20559;-76
2022/07/27 11:13:24;;;;;;;3.53;2.67;;;31.00;84.00;;;;;;5073401;28;20031;-76
2022/07/27 11:15:59;;;;;;;3.47;3.28;;;31.00;83.70;;;;;;5073571;28;20028;-75
2022/07/27 11:18:29;;;;;;;5.05;4.00;;;31.00;85.00;;;;;;5091871;28;20028;-76
2022/07/27 11:21:18;;;;;;;2.97;2.80;;;30.90;83.20;;;;;;5091802;28;20154;-76
2022/07/27 11:23:49;;;;;;;4.13;2.72;;;30.80;81.30;;;;;;5091639;28;20024;-76
2022/07/27 11:26:15;;;;;;;2.50;2.30;;;30.90;80.60;;;;;;5073633;28;20470;-75
2022/07/27 11:28:41;;;;;;;2.63;2.53;;;31.00;80.90;;;;;;5073328;28;20028;-75
2022/07/27 11:31:12;;;;;;;4.75;2.78;;;31.10;81.50;;;;;;5091354;28;20020;-76
2022/07/27 11:33:53;;;;;;;3.33;3.03;;;31.10;81.20;;;;;;5091380;28;20043;-76
2022/07/27 11:36:19;;;;;;;3.22;2.90;;;31.20;80.60;;;;;;5073424;28;20085;-76
2022/07/27 11:38:54;;;;;;;4.32;3.60;;;31.30;79.90;;;;;;5076561;28;20485;-76
2022/07/27 11:41:25;;;;;;;3.95;3.67;;;31.20;80.70;;;;;;5077503;28;20024;-75
2022/07/27 11:43:52;;;;;;;3.78;3.05;;;31.10;80.60;;;;;;5077325;28;20044;-75
2022/07/27 11:46:24;;;;;;;2.80;2.60;;;31.30;82.80;;;;;;5076767;28;20024;-76
2022/07/27 11:48:53;;;;;;;2.67;2.47;;;31.30;79.60;;;;;;5095244;28;20107;-76
2022/07/27 11:51:19;;;;;;;3.08;2.95;;;31.50;79.10;;;;;;5076857;28;20440;-76
2022/07/27 11:53:45;;;;;;;2.80;2.60;;;31.20;76.80;;;;;;5095248;28;20047;-75
2022/07/27 11:56:19;;;;;;;3.00;2.80;;;31.30;79.30;;;;;;5076944;28;20052;-76
2022/07/27 11:59:00;;;;;;;2.88;2.67;;;31.50;78.00;;;;;;5094974;28;20032;-75
2022/07/27 12:01:35;;;;;;;2.50;2.30;;;31.60;75.60;;;;;;5077162;28;20024;-76
2022/07/27 12:04:03;;;;;;;2.50;2.25;;;31.80;75.80;;;;;;5095197;28;20254;-75
2022/07/27 12:06:32;;;;;;;2.33;2.22;;;32.10;73.70;;;;;;5076914;28;20031;-75
2022/07/27 12:09:00;;;;;;;2.25;2.05;;;32.20;71.60;;;;;;5095199;28;20074;-75
2022/07/27 12:11:49;;;;;;;2.47;2.38;;;32.30;73.60;;;;;;5094778;28;20032;-76
2022/07/27 12:14:16;;;;;;;3.17;2.45;;;32.20;68.90;;;;;;5063735;28;20190;-75
2022/07/27 12:16:43;;;;;;;3.05;2.85;;;32.20;68.10;;;;;;5076603;28;20020;-74
2022/07/27 12:19:09;;;;;;;2.15;2.00;;;32.40;70.60;;;;;;5099813;28;20023;-75
2022/07/27 12:21:35;;;;;;;2.47;2.28;;;32.60;68.80;;;;;;5115361;28;20084;-75
2022/07/27 12:24:01;;;;;;;2.63;2.42;;;32.50;66.90;;;;;;5115093;28;20038;-75
2022/07/27 12:26:27;;;;;;;2.30;2.20;;;32.60;66.50;;;;;;5115123;28;20020;-76
2022/07/27 12:29:10;;;;;;;2.90;2.80;;;32.60;65.90;;;;;;5115146;28;20388;-76
2022/07/27 12:31:45;;;;;;;3.00;2.80;;;32.50;64.80;;;;;;5114929;28;20493;-75
2022/07/27 12:34:13;;;;;;;2.63;2.47;;;32.50;65.30;;;;;;5115183;28;20027;-76
2022/07/27 12:36:40;;;;;;;2.33;2.13;;;32.70;67.60;;;;;;5111884;28;20020;-75
2022/07/27 12:39:07;;;;;;;2.45;2.35;;;32.80;63.30;;;;;;5114885;28;20051;-75
2022/07/27 12:41:38;;;;;;;3.25;2.25;;;32.80;65.30;;;;;;5113620;28;20028;-75
2022/07/27 12:44:12;;;;;;;3.03;2.83;;;32.90;63.10;;;;;;5114417;28;20047;-75
2022/07/27 12:46:54;;;;;;;5.72;3.08;;;32.90;64.50;;;;;;5114782;28;20030;-75
2022/07/27 12:49:24;;;;;;;5.35;2.75;;;32.90;64.40;;;;;;5114299;28;20088;-75
2022/07/27 12:51:50;;;;;;;2.65;2.30;;;33.00;64.10;;;;;;5114576;28;20035;-76
2022/07/27 12:54:16;;;;;;;2.50;2.30;;;33.00;63.60;;;;;;5114689;28;20058;-75
2022/07/27 12:56:42;;;;;;;2.60;2.50;;;33.10;63.50;;;;;;5096021;28;20055;-76